createdAt,value
2023-03-15T00:01:38.363Z,100171.38
2023-03-15T00:04:27.160Z,100174.03
2023-03-15T00:07:13.576Z,100174.69
2023-03-15T00:10:00.509Z,100186.91
2023-03-15T00:12:47.256Z,100194.88
2023-03-15T00:15:34.018Z,100191.56
2023-03-15T00:18:22.169Z,100189.75
2023-03-15T00:21:09.039Z,100196.78
2023-03-15T00:23:55.882Z,100205.50
2023-03-15T00:26:42.669Z,100216.00
2023-03-15T00:29:29.291Z,100220.34
2023-03-15T00:32:16.270Z,100225.66
2023-03-15T00:35:04.419Z,100222.97
2023-03-15T00:37:51.568Z,100238.75
2023-03-15T00:40:38.991Z,100230.13
2023-03-15T00:43:25.908Z,100251.97
2023-03-15T00:46:13.253Z,100250.22
2023-03-15T00:48:59.847Z,100257.91
2023-03-15T00:51:48.225Z,100256.16
2023-03-15T00:54:35.487Z,100265.75
2023-03-15T00:57:22.259Z,100273.78
2023-03-15T01:00:11.380Z,100271.16
2023-03-15T01:02:57.920Z,100254.50
2023-03-15T01:05:44.708Z,100273.69
2023-03-15T01:08:32.880Z,100278.88
2023-03-15T01:11:24.319Z,100281.47
2023-03-15T01:14:11.546Z,100284.09
2023-03-15T01:16:58.090Z,100289.38
2023-03-15T01:19:44.833Z,100281.47
2023-03-15T01:22:32.411Z,100298.94
2023-03-15T01:25:20.583Z,100300.66
2023-03-15T01:28:07.232Z,100297.34
2023-03-15T01:30:55.027Z,100315.47
2023-03-15T01:33:41.869Z,100316.38
2023-03-15T01:36:28.750Z,100317.25
2023-03-15T01:39:16.005Z,100317.34
2023-03-15T01:42:06.277Z,100324.31
2023-03-15T01:44:55.591Z,100323.44
2023-03-15T01:47:42.602Z,100333.97
2023-03-15T01:50:31.142Z,100328.00
2023-03-15T01:53:18.483Z,100331.56
2023-03-15T01:56:07.364Z,100335.06
2023-03-15T01:58:59.836Z,100341.19
2023-03-15T02:01:48.091Z,100330.75
2023-03-15T02:04:38.128Z,100335.84
2023-03-15T02:07:27.748Z,100317.72
2023-03-15T02:10:18.681Z,100337.69
2023-03-15T02:13:08.007Z,100331.59
2023-03-15T02:15:56.224Z,100342.91
2023-03-15T02:18:49.825Z,100343.06
2023-03-15T02:21:45.922Z,100352.53
2023-03-15T02:24:44.043Z,100350.75
2023-03-15T02:27:35.582Z,100348.16
2023-03-15T02:30:22.215Z,100351.59
2023-03-15T02:33:15.112Z,100360.41
2023-03-15T02:36:09.934Z,100360.28
2023-03-15T02:38:58.018Z,100373.50
2023-03-15T02:41:49.270Z,100369.00
2023-03-15T02:44:45.362Z,100370.78
2023-03-15T02:47:35.012Z,100375.97
2023-03-15T02:50:21.967Z,100380.34
2023-03-15T02:53:08.766Z,100387.25
2023-03-15T02:55:55.541Z,100400.41
2023-03-15T02:58:46.345Z,100398.69
2023-03-15T03:01:41.460Z,100394.25
2023-03-15T03:04:32.786Z,100400.50
2023-03-15T03:07:20.530Z,100399.69
2023-03-15T03:10:16.070Z,100407.56
2023-03-15T03:13:11.903Z,100417.13
2023-03-15T03:15:59.768Z,100412.81
2023-03-15T03:18:51.485Z,100423.25
2023-03-15T03:21:38.257Z,100429.41
2023-03-15T03:24:25.972Z,100427.56
2023-03-15T03:27:15.179Z,100434.63
2023-03-15T03:30:03.861Z,100439.00
2023-03-15T03:32:53.261Z,100440.75
2023-03-15T03:35:42.893Z,100450.34
2023-03-15T03:38:29.859Z,100450.41
2023-03-15T03:41:19.028Z,100454.75
2023-03-15T03:44:06.350Z,100451.25
2023-03-15T03:46:53.065Z,100449.50
2023-03-15T03:49:39.848Z,100451.25
2023-03-15T03:52:27.969Z,100460.03
2023-03-15T03:55:25.603Z,100461.75
2023-03-15T03:58:13.864Z,100467.81
2023-03-15T04:01:06.440Z,100462.59
2023-03-15T04:03:54.682Z,100476.56
2023-03-15T04:06:45.913Z,100485.25
2023-03-15T04:09:37.576Z,100488.72
2023-03-15T04:12:25.010Z,100490.44
2023-03-15T04:15:14.220Z,100490.50
2023-03-15T04:18:05.942Z,100503.50
2023-03-15T04:20:58.280Z,100507.91
2023-03-15T04:23:45.599Z,100500.00
2023-03-15T04:26:51.033Z,100500.03
2023-03-15T04:29:50.753Z,100506.97
2023-03-15T04:33:04.608Z,100508.75
2023-03-15T04:36:10.096Z,100502.66
2023-03-15T04:39:24.530Z,100510.53
2023-03-15T04:42:27.223Z,100511.41
2023-03-15T04:45:28.846Z,100515.75
2023-03-15T04:48:33.947Z,100517.47
2023-03-15T04:51:39.654Z,100525.34
2023-03-15T04:54:49.505Z,100529.75
2023-03-15T04:57:53.098Z,100534.13
2023-03-15T05:01:09.430Z,100536.69
2023-03-15T05:04:31.674Z,100537.63
2023-03-15T05:07:39.815Z,100541.13
2023-03-15T05:10:41.632Z,100547.25
2023-03-15T05:14:05.215Z,100556.84
2023-03-15T05:17:23.009Z,100559.44
2023-03-15T05:20:23.560Z,100561.19
2023-03-15T05:23:28.891Z,100564.66
2023-03-15T05:26:48.307Z,100577.75
2023-03-15T05:29:47.156Z,100576.84
2023-03-15T05:32:52.487Z,100585.53
2023-03-15T05:36:06.260Z,100585.56
2023-03-15T05:39:16.842Z,100595.16
2023-03-15T05:42:22.110Z,100610.88
2023-03-15T05:45:21.124Z,100616.06
2023-03-15T05:48:27.742Z,100616.06
2023-03-15T05:51:25.224Z,100630.00
2023-03-15T05:54:30.995Z,100540.34
2023-03-15T05:57:37.864Z,100634.31
2023-03-15T06:00:52.435Z,100644.63
2023-03-15T06:03:56.252Z,100660.25
2023-03-15T06:06:47.267Z,100661.03
2023-03-15T06:09:34.493Z,100661.00
2023-03-15T06:12:22.193Z,100665.28
2023-03-15T06:15:10.398Z,100674.91
2023-03-15T06:17:58.777Z,100670.53
2023-03-15T06:20:45.860Z,100667.00
2023-03-15T06:23:33.788Z,100680.94
2023-03-15T06:26:21.011Z,100693.16
2023-03-15T06:29:08.836Z,100695.75
2023-03-15T06:31:55.474Z,100693.88
2023-03-15T06:34:45.746Z,100699.19
2023-03-15T06:37:36.051Z,100700.84
2023-03-15T06:40:23.227Z,100702.41
2023-03-15T06:43:14.242Z,100703.38
2023-03-15T06:46:01.411Z,100707.66
2023-03-15T06:48:48.109Z,100716.47
2023-03-15T06:51:36.918Z,100720.00
2023-03-15T06:54:23.867Z,100730.38
2023-03-15T06:57:10.895Z,100744.41
2023-03-15T06:59:57.283Z,100738.09
2023-03-15T07:02:44.419Z,100729.34
2023-03-15T07:05:31.487Z,100746.84
2023-03-15T07:08:20.481Z,100742.31
2023-03-15T07:11:07.520Z,100748.34
2023-03-15T07:13:54.423Z,100743.94
2023-03-15T07:16:41.302Z,100744.78
2023-03-15T07:19:28.177Z,100746.41
2023-03-15T07:22:15.160Z,100759.50
2023-03-15T07:25:03.014Z,100755.13
2023-03-15T07:27:50.092Z,100760.53
2023-03-15T07:30:36.790Z,100762.16
2023-03-15T07:33:24.274Z,100771.81
2023-03-15T07:36:11.128Z,100776.78
2023-03-15T07:38:58.082Z,100778.25
2023-03-15T07:41:46.184Z,100780.75
2023-03-15T07:44:40.663Z,100784.38
2023-03-15T07:47:27.426Z,100785.63
2023-03-15T07:50:16.928Z,100781.13
2023-03-15T07:53:04.654Z,100793.47
2023-03-15T07:55:51.441Z,100798.78
2023-03-15T07:58:39.550Z,100794.44
2023-03-15T08:01:26.184Z,100796.47
2023-03-15T08:04:13.101Z,100805.78
2023-03-15T08:06:59.985Z,100805.25
2023-03-15T08:09:48.499Z,100810.63
2023-03-15T08:12:35.334Z,100822.81
2023-03-15T08:15:23.252Z,100821.47
2023-03-15T08:18:09.926Z,100827.59
2023-03-15T08:20:57.024Z,100827.44
2023-03-15T08:23:44.429Z,100838.84
2023-03-15T08:26:30.827Z,100842.56
2023-03-15T08:29:17.749Z,100838.13
2023-03-15T08:32:06.679Z,100840.56
2023-03-15T08:34:54.814Z,100834.56
2023-03-15T08:37:48.283Z,100849.47
2023-03-15T08:40:39.950Z,100841.50
2023-03-15T08:43:27.727Z,100855.38
2023-03-15T08:46:15.242Z,100855.56
2023-03-15T08:49:05.012Z,100841.59
2023-03-15T08:51:52.632Z,100859.97
2023-03-15T08:54:40.890Z,100863.44
2023-03-15T08:57:29.388Z,100861.56
2023-03-15T09:00:20.868Z,100871.31
2023-03-15T09:03:07.699Z,100870.44
2023-03-15T09:05:58.458Z,100872.91
2023-03-15T09:08:44.863Z,100874.78
2023-03-15T09:11:31.514Z,100879.53
2023-03-15T09:14:18.411Z,100883.72
2023-03-15T09:17:05.393Z,100884.59
2023-03-15T09:19:52.598Z,100888.69
2023-03-15T09:22:40.885Z,100900.66
2023-03-15T09:25:28.185Z,100903.66
2023-03-15T09:28:15.296Z,100904.53
2023-03-15T09:31:06.631Z,100911.50
2023-03-15T09:33:53.316Z,100904.19
2023-03-15T09:36:40.292Z,100913.41
2023-03-15T09:39:28.597Z,100916.41
2023-03-15T09:42:20.036Z,100918.84
2023-03-15T09:45:18.835Z,100925.72
2023-03-15T09:48:11.998Z,100934.78
2023-03-15T09:51:03.376Z,100934.69
2023-03-15T09:53:57.890Z,100930.25
2023-03-15T09:56:54.467Z,100945.75
2023-03-15T09:59:44.214Z,100951.09
2023-03-15T10:02:32.344Z,100954.44
2023-03-15T10:05:23.776Z,100952.19
2023-03-15T10:08:12.799Z,100948.69
2023-03-15T10:11:08.434Z,100957.00
2023-03-15T10:14:11.609Z,100964.59
2023-03-15T10:16:58.351Z,100974.53
2023-03-15T10:19:51.062Z,100968.97
2023-03-15T10:22:42.046Z,100974.31
2023-03-15T10:25:30.122Z,100975.31
2023-03-15T10:28:25.295Z,100976.06
2023-03-15T10:31:25.731Z,100981.78
2023-03-15T10:34:19.813Z,100978.66
2023-03-15T10:37:06.739Z,100980.66
2023-03-15T10:39:57.444Z,100985.53
2023-03-15T10:42:45.545Z,100985.81
2023-03-15T10:45:33.973Z,100984.69
2023-03-15T10:48:22.008Z,100987.63
2023-03-15T10:51:18.975Z,100990.50
2023-03-15T10:54:08.576Z,100992.56
2023-03-15T10:57:00.759Z,100987.25
2023-03-15T10:59:58.397Z,100982.81
2023-03-15T11:02:50.738Z,100979.34
2023-03-15T11:05:44.105Z,100985.03
2023-03-15T11:08:39.025Z,100994.84
2023-03-15T11:11:26.842Z,101000.53
2023-03-15T11:14:13.839Z,101002.38
2023-03-15T11:17:02.637Z,100998.44
2023-03-15T11:19:56.278Z,101002.38
2023-03-15T11:22:44.720Z,101007.22
2023-03-15T11:25:33.303Z,101005.63
2023-03-15T11:28:23.740Z,100996.34
2023-03-15T11:31:10.355Z,101001.53
2023-03-15T11:33:59.805Z,101001.13
2023-03-15T11:36:58.705Z,101003.50
2023-03-15T11:40:11.369Z,101000.75
2023-03-15T11:43:03.035Z,100992.63
2023-03-15T11:45:55.255Z,100994.38
2023-03-15T11:49:16.317Z,100988.63
2023-03-15T11:52:03.134Z,100978.38
2023-03-15T11:54:50.019Z,100997.09
2023-03-15T11:57:41.824Z,100998.91
2023-03-15T12:00:52.536Z,101000.88
2023-03-15T12:03:41.617Z,100997.09
2023-03-15T12:06:38.447Z,100997.63
2023-03-15T12:09:49.150Z,100993.78
2023-03-15T12:12:39.044Z,100988.78
2023-03-15T12:15:50.848Z,100988.91
2023-03-15T12:18:44.972Z,100985.44
2023-03-15T12:21:35.157Z,100980.09
2023-03-15T12:24:25.162Z,100989.66
2023-03-15T12:27:17.902Z,100985.69
2023-03-15T12:30:08.822Z,100976.75
2023-03-15T12:32:57.284Z,100999.31
2023-03-15T12:35:44.460Z,101004.78
2023-03-15T12:38:37.735Z,101011.88
2023-03-15T12:41:39.816Z,101007.50
2023-03-15T12:44:38.766Z,101002.56
2023-03-15T12:47:26.776Z,101014.38
2023-03-15T12:50:39.713Z,101019.13
2023-03-15T12:53:38.877Z,101018.28
2023-03-15T12:56:44.917Z,101023.00
2023-03-15T12:59:41.745Z,101016.00
2023-03-15T13:02:43.257Z,101019.03
2023-03-15T13:05:36.316Z,101021.28
2023-03-15T13:08:25.721Z,101030.25
2023-03-15T13:11:22.942Z,101029.91
2023-03-15T13:14:22.552Z,101021.13
2023-03-15T13:17:22.787Z,101023.13
2023-03-15T13:20:42.062Z,101029.06
2023-03-15T13:23:30.613Z,101029.19
2023-03-15T13:26:36.052Z,101033.03
2023-03-15T13:29:28.521Z,101031.25
2023-03-15T13:32:17.703Z,101024.06
2023-03-15T13:35:04.582Z,101026.09
2023-03-15T13:38:02.033Z,101033.19
2023-03-15T13:40:48.860Z,101032.56
2023-03-15T13:43:37.690Z,101039.53
2023-03-15T13:46:27.400Z,101041.25
2023-03-15T13:49:14.005Z,101041.47
2023-03-15T13:52:03.258Z,101056.78
2023-03-15T13:54:55.085Z,101078.06
2023-03-15T13:57:42.430Z,101085.63
2023-03-15T14:00:33.883Z,101094.81
2023-03-15T14:03:23.868Z,101081.03
2023-03-15T14:06:14.334Z,101093.84
2023-03-15T14:09:07.751Z,101085.75
2023-03-15T14:12:07.389Z,101079.34
2023-03-15T14:14:54.909Z,101080.00
2023-03-15T14:17:53.832Z,101052.97
2023-03-15T14:20:42.593Z,101082.09
2023-03-15T14:23:31.459Z,101081.00
2023-03-15T14:26:20.339Z,101080.50
2023-03-15T14:29:17.026Z,101078.25
2023-03-15T14:32:06.922Z,101074.84
2023-03-15T14:35:02.046Z,101072.06
2023-03-15T14:37:49.722Z,101072.72
2023-03-15T14:40:39.324Z,101072.91
2023-03-15T14:43:25.865Z,101061.34
2023-03-15T14:46:14.014Z,101064.81
2023-03-15T14:49:01.019Z,101071.88
2023-03-15T14:51:48.421Z,101065.91
2023-03-15T14:54:35.352Z,101057.00
2023-03-15T14:57:21.962Z,101058.88
2023-03-15T15:00:13.846Z,101066.22
2023-03-15T15:03:02.577Z,101070.56
2023-03-15T15:05:49.540Z,101072.22
2023-03-15T15:08:40.070Z,101066.03
2023-03-15T15:11:26.968Z,101067.44
2023-03-15T15:14:14.436Z,101068.16
2023-03-15T15:17:01.529Z,101063.69
2023-03-15T15:19:49.494Z,101073.63
2023-03-15T15:22:36.281Z,101078.81
2023-03-15T15:25:24.683Z,101075.28
2023-03-15T15:28:15.708Z,101084.78
2023-03-15T15:31:05.530Z,101090.38
2023-03-15T15:33:52.784Z,101089.63
2023-03-15T15:36:43.508Z,101090.69
2023-03-15T15:39:30.144Z,101095.00
2023-03-15T15:42:16.927Z,101091.59
2023-03-15T15:45:03.613Z,101100.34
2023-03-15T15:47:50.325Z,101096.38
2023-03-15T15:50:37.728Z,101107.38
2023-03-15T15:53:25.784Z,101105.88
2023-03-15T15:56:12.994Z,101112.22
2023-03-15T15:59:00.177Z,101117.34
2023-03-15T16:02:00.229Z,101121.06
2023-03-15T16:04:47.561Z,101124.69
2023-03-15T16:07:34.335Z,101127.19
2023-03-15T16:10:25.372Z,101125.31
2023-03-15T16:13:13.516Z,101127.78
2023-03-15T16:16:00.547Z,101143.53
2023-03-15T16:18:47.204Z,101166.75
2023-03-15T16:21:38.321Z,101182.88
2023-03-15T16:24:27.883Z,101198.19
2023-03-15T16:27:18.470Z,101184.25
2023-03-15T16:30:05.835Z,101173.44
2023-03-15T16:32:55.478Z,101172.34
2023-03-15T16:35:42.329Z,101176.56
2023-03-15T16:38:32.579Z,101149.47
2023-03-15T16:41:19.364Z,101180.94
2023-03-15T16:44:12.778Z,101181.03
2023-03-15T16:46:59.492Z,101189.84
2023-03-15T16:49:46.288Z,101193.47
2023-03-15T16:52:33.802Z,101195.44
2023-03-15T16:55:24.808Z,101201.81
2023-03-15T16:58:19.067Z,101209.00
2023-03-15T17:01:08.478Z,101141.84
2023-03-15T17:03:54.973Z,101218.03
2023-03-15T17:06:42.810Z,101224.25
2023-03-15T17:09:29.841Z,101230.44
2023-03-15T17:12:23.131Z,101241.88
2023-03-15T17:15:11.743Z,101232.31
2023-03-15T17:18:00.481Z,101241.09
2023-03-15T17:20:49.235Z,101246.34
2023-03-15T17:23:36.425Z,101247.22
2023-03-15T17:26:24.868Z,101241.97
2023-03-15T17:29:14.916Z,101262.97
2023-03-15T17:32:02.227Z,101266.47
2023-03-15T17:34:50.264Z,101263.84
2023-03-15T17:37:39.242Z,101271.69
2023-03-15T17:40:27.927Z,101275.19
2023-03-15T17:43:17.111Z,101275.19
2023-03-15T17:46:03.701Z,101285.66
2023-03-15T17:48:50.862Z,101289.16
2023-03-15T17:51:39.002Z,101293.56
2023-03-15T17:54:25.739Z,101289.16
2023-03-15T17:57:13.854Z,101296.16
2023-03-15T18:00:00.615Z,101294.44
2023-03-15T18:02:55.037Z,101303.19
2023-03-15T18:05:43.773Z,101301.44
2023-03-15T18:08:32.299Z,101306.69
2023-03-15T18:11:28.824Z,101312.75
2023-03-15T18:14:18.170Z,101308.41
2023-03-15T18:17:04.703Z,101314.50
2023-03-15T18:19:51.653Z,101316.28
2023-03-15T18:22:40.457Z,101317.16
2023-03-15T18:25:31.473Z,101328.53
2023-03-15T18:28:18.262Z,101322.38
2023-03-15T18:31:05.550Z,101331.13
2023-03-15T18:33:53.102Z,101327.66
2023-03-15T18:36:39.602Z,101328.53
2023-03-15T18:39:27.082Z,101338.16
2023-03-15T18:42:15.309Z,101346.88
2023-03-15T18:45:02.290Z,101344.25
2023-03-15T18:47:49.555Z,101354.75
2023-03-15T18:50:36.613Z,101348.59
2023-03-15T18:53:24.182Z,101346.88
2023-03-15T18:56:16.628Z,101359.97
2023-03-15T18:59:05.121Z,101355.63
2023-03-15T19:01:52.500Z,101356.47
2023-03-15T19:04:39.357Z,101357.34
2023-03-15T19:07:27.852Z,101359.09
2023-03-15T19:10:16.462Z,101314.41
2023-03-15T19:13:04.692Z,101359.06
2023-03-15T19:15:53.134Z,101360.84
2023-03-15T19:18:45.665Z,101369.53
2023-03-15T19:21:32.664Z,101376.53
2023-03-15T19:24:19.475Z,101386.97
2023-03-15T19:27:10.601Z,101379.94
2023-03-15T19:29:57.086Z,101378.19
2023-03-15T19:32:47.776Z,101390.38
2023-03-15T19:35:34.360Z,101390.44
2023-03-15T19:38:21.541Z,101386.81
2023-03-15T19:41:12.446Z,101398.22
2023-03-15T19:43:59.373Z,101398.13
2023-03-15T19:46:46.405Z,101404.25
2023-03-15T19:49:34.827Z,101393.78
2023-03-15T19:52:21.735Z,101363.06
2023-03-15T19:55:09.166Z,101413.75
2023-03-15T19:57:55.872Z,101426.91
2023-03-15T20:00:42.492Z,101423.44
2023-03-15T20:03:29.388Z,101427.81
2023-03-15T20:06:17.547Z,101426.84
2023-03-15T20:09:05.961Z,101436.53
2023-03-15T20:11:52.610Z,101430.41
2023-03-15T20:14:39.813Z,101434.00
2023-03-15T20:17:31.382Z,101435.63
2023-03-15T20:20:49.248Z,101440.94
2023-03-15T20:23:48.232Z,101440.03
2023-03-15T20:26:38.060Z,101441.69
2023-03-15T20:29:26.712Z,101445.19
2023-03-15T20:32:14.739Z,101443.41
2023-03-15T20:35:02.504Z,101449.47
2023-03-15T20:37:49.531Z,101445.09
2023-03-15T20:40:41.549Z,101444.25
2023-03-15T20:43:29.305Z,101447.72
2023-03-15T20:46:18.962Z,101451.22
2023-03-15T20:49:07.926Z,101459.91
2023-03-15T20:51:55.426Z,101459.84
2023-03-15T20:54:42.080Z,101460.75
2023-03-15T20:57:30.230Z,101463.41
2023-03-15T21:00:20.365Z,101380.06
2023-03-15T21:03:08.231Z,101470.31
2023-03-15T21:05:56.017Z,101448.25
2023-03-15T21:08:44.004Z,101477.31
2023-03-15T21:11:30.834Z,101471.97
2023-03-15T21:14:19.108Z,101478.19
2023-03-15T21:17:05.801Z,101474.59
2023-03-15T21:19:53.650Z,101477.19
2023-03-15T21:22:40.434Z,101482.44
2023-03-15T21:25:27.271Z,101481.44
2023-03-15T21:28:13.923Z,101488.50
2023-03-15T21:31:02.346Z,101483.13
2023-03-15T21:33:50.790Z,101470.00
2023-03-15T21:36:37.539Z,101491.78
2023-03-15T21:39:24.325Z,101486.56
2023-03-15T21:42:11.407Z,101494.31
2023-03-15T21:44:57.898Z,101496.00
2023-03-15T21:47:47.128Z,101501.25
2023-03-15T21:50:33.855Z,101502.97
2023-03-15T21:53:20.743Z,101504.84
2023-03-15T21:56:08.022Z,101508.28
2023-03-15T21:58:55.009Z,101510.88
2023-03-15T22:01:51.156Z,101510.84
2023-03-15T22:04:41.746Z,101512.72
2023-03-15T22:07:28.503Z,101512.69
2023-03-15T22:10:15.948Z,101516.13
2023-03-15T22:13:03.357Z,101513.44
2023-03-15T22:15:50.126Z,101510.84
2023-03-15T22:18:36.802Z,101518.72
2023-03-15T22:21:24.572Z,101520.47
2023-03-15T22:24:11.663Z,101522.13
2023-03-15T22:26:58.669Z,101522.91
2023-03-15T22:29:45.498Z,101529.97
2023-03-15T22:32:32.141Z,101528.34
2023-03-15T22:35:19.268Z,101530.03
2023-03-15T22:38:10.245Z,101529.19
2023-03-15T22:41:01.871Z,101513.31
2023-03-15T22:43:48.542Z,101540.66
2023-03-15T22:46:36.067Z,101538.91
2023-03-15T22:49:23.810Z,101544.13
2023-03-15T22:52:10.904Z,101543.31
2023-03-15T22:54:58.693Z,101541.50
2023-03-15T22:57:45.454Z,101548.44
2023-03-15T23:00:32.290Z,101543.25
2023-03-15T23:03:19.428Z,101541.41
2023-03-15T23:06:06.712Z,101552.94
2023-03-15T23:08:53.568Z,101552.78
2023-03-15T23:11:41.658Z,101556.34
2023-03-15T23:14:28.299Z,101564.28
2023-03-15T23:17:15.295Z,101567.66
2023-03-15T23:20:02.199Z,101569.38
2023-03-15T23:22:49.640Z,101571.94
2023-03-15T23:25:38.987Z,101572.81
2023-03-15T23:28:27.040Z,101572.88
2023-03-15T23:31:13.931Z,101570.16
2023-03-15T23:34:00.328Z,101573.53
2023-03-15T23:36:47.172Z,101577.88
2023-03-15T23:39:33.927Z,101578.81
2023-03-15T23:42:20.561Z,101572.66
2023-03-15T23:45:10.521Z,101584.06
2023-03-15T23:47:57.437Z,101586.72
2023-03-15T23:50:44.445Z,101582.47
2023-03-15T23:53:31.731Z,101575.34
2023-03-15T23:56:18.561Z,101580.53
2023-03-15T23:59:05.456Z,101589.28
